Time;durP1;ratioP1;P1;durP2;ratioP2;P2;SDS_P1;SDS_P2;PMS_P1;PMS_P2;Temp;Humidity;BMP_temperature;BMP_pressure;BME280_temperature;BME280_humidity;BME280_pressure;Samples;Min_cycle;Max_cycle;Signal;HPM_P1;HPM_P2
2021/08/14 00:01:35;;;;;;;45.80;28.70;;;25.90;45.60;;;;;;4212607;28;20040;-60
2021/08/14 00:03:37;;;;;;;93.38;71.47;;;25.90;46.20;;;;;;4206685;28;20040;-60
2021/08/14 00:05:39;;;;;;;33.72;25.90;;;25.90;46.30;;;;;;4200290;28;20112;-60
2021/08/14 00:07:41;;;;;;;14.45;8.88;;;25.80;45.80;;;;;;4219172;28;20062;-61
2021/08/14 00:09:43;;;;;;;14.90;8.68;;;25.90;45.60;;;;;;4203553;28;20140;-62
2021/08/14 00:11:45;;;;;;;12.65;8.20;;;25.90;45.50;;;;;;4200311;28;20120;-61
2021/08/14 00:13:47;;;;;;;14.32;7.85;;;25.80;45.60;;;;;;4198437;28;20049;-57
2021/08/14 00:15:49;;;;;;;13.85;6.80;;;25.90;45.70;;;;;;4198828;28;20049;-58
2021/08/14 00:17:51;;;;;;;13.00;7.07;;;25.90;45.60;;;;;;4199115;28;20052;-58
2021/08/14 00:19:53;;;;;;;10.50;6.28;;;25.90;45.50;;;;;;4199361;28;20048;-62
2021/08/14 00:21:56;;;;;;;11.93;6.43;;;25.90;45.50;;;;;;4219877;28;20108;-58
2021/08/14 00:23:58;;;;;;;20.63;6.35;;;25.90;45.60;;;;;;4200485;28;20045;-58
2021/08/14 00:26:01;;;;;;;13.50;6.28;;;25.90;45.70;;;;;;4200694;28;20041;-57
2021/08/14 00:28:03;;;;;;;9.35;5.40;;;25.90;45.50;;;;;;4199022;28;20053;-59
2021/08/14 00:30:06;;;;;;;14.18;5.55;;;25.90;45.60;;;;;;4207876;28;20076;-59
2021/08/14 00:32:08;;;;;;;8.02;5.28;;;25.90;45.50;;;;;;4211254;28;20075;-54
2021/08/14 00:34:10;;;;;;;9.95;5.28;;;25.90;45.40;;;;;;4199768;28;20080;-58
2021/08/14 00:36:12;;;;;;;11.80;5.30;;;25.90;45.30;;;;;;4197787;28;20109;-59
2021/08/14 00:38:14;;;;;;;12.20;5.00;;;25.90;45.30;;;;;;4212364;28;20077;-59
2021/08/14 00:40:16;;;;;;;17.38;5.03;;;25.90;45.30;;;;;;4221486;28;20036;-58
2021/08/14 00:42:18;;;;;;;10.32;5.43;;;25.90;45.40;;;;;;4215699;28;20044;-57
2021/08/14 00:44:20;;;;;;;11.35;5.10;;;25.90;45.20;;;;;;4215820;28;20044;-58
2021/08/14 00:46:22;;;;;;;11.20;5.82;;;25.90;45.20;;;;;;4197651;28;20073;-58
2021/08/14 00:48:24;;;;;;;11.90;5.80;;;25.90;45.20;;;;;;4215219;28;20087;-57
2021/08/14 00:50:27;;;;;;;10.63;6.50;;;25.90;45.10;;;;;;4215397;28;20052;-59
2021/08/14 00:52:29;;;;;;;14.65;6.28;;;25.80;45.20;;;;;;4212190;28;20049;-58
2021/08/14 00:54:31;;;;;;;19.17;6.38;;;25.80;45.30;;;;;;4215593;28;20104;-56
2021/08/14 00:56:33;;;;;;;12.73;6.55;;;25.90;45.30;;;;;;4215306;28;20068;-57
2021/08/14 00:58:37;;;;;;;14.32;6.32;;;25.80;45.10;;;;;;4215667;28;20048;-58
2021/08/14 01:00:40;;;;;;;16.13;7.30;;;25.80;45.10;;;;;;4215042;28;20108;-59
2021/08/14 01:02:42;;;;;;;31.70;7.28;;;25.80;45.10;;;;;;4222318;28;20041;-60
2021/08/14 01:04:48;;;;;;;14.63;6.43;;;25.80;45.30;;;;;;4213693;28;20056;-60
2021/08/14 01:06:51;;;;;;;19.98;6.60;;;25.80;45.10;;;;;;4215807;28;20050;-59
2021/08/14 01:08:54;;;;;;;20.70;8.38;;;25.70;45.10;;;;;;4217130;28;20109;-59
2021/08/14 01:10:56;;;;;;;13.20;7.65;;;25.70;45.10;;;;;;4216166;28;20077;-59
2021/08/14 01:12:59;;;;;;;13.73;6.90;;;25.60;45.20;;;;;;4201837;28;20061;-59
2021/08/14 01:15:02;;;;;;;16.13;7.63;;;25.60;45.30;;;;;;4217284;28;20048;-59
2021/08/14 01:17:04;;;;;;;20.60;8.02;;;25.60;45.30;;;;;;4214306;28;20386;-59
2021/08/14 01:19:07;;;;;;;14.90;6.25;;;25.60;45.40;;;;;;4184002;28;20042;-59
2021/08/14 01:21:10;;;;;;;18.70;8.00;;;25.50;45.40;;;;;;4216410;28;20037;-59
2021/08/14 01:23:13;;;;;;;15.38;7.30;;;25.50;45.50;;;;;;4216915;28;20049;-57
2021/08/14 01:25:17;;;;;;;15.68;7.72;;;25.40;45.50;;;;;;4215409;28;20050;-56
2021/08/14 01:27:19;;;;;;;12.38;7.10;;;25.40;45.50;;;;;;4201355;28;20045;-57
2021/08/14 01:29:21;;;;;;;16.48;7.57;;;25.40;45.50;;;;;;4212740;28;20047;-56
2021/08/14 01:31:23;;;;;;;24.00;7.97;;;25.40;45.60;;;;;;4216315;28;20040;-57
2021/08/14 01:33:26;;;;;;;13.88;8.73;;;25.40;45.60;;;;;;4216361;28;20048;-57
2021/08/14 01:35:28;;;;;;;23.83;8.10;;;25.40;45.60;;;;;;4216368;28;20048;-56
2021/08/14 01:37:31;;;;;;;17.10;8.20;;;25.40;45.60;;;;;;4217455;28;20389;-56
2021/08/14 01:39:33;;;;;;;16.45;7.18;;;25.40;45.60;;;;;;4214297;28;20048;-56
2021/08/14 01:41:35;;;;;;;16.55;7.50;;;25.40;45.60;;;;;;4202136;28;20049;-55
2021/08/14 01:43:59;;;;;;;15.95;7.47;;;25.40;45.60;;;;;;4217478;28;20041;-57
2021/08/14 01:46:01;;;;;;;18.02;8.82;;;25.40;45.60;;;;;;4217288;28;20063;-56
2021/08/14 01:48:03;;;;;;;18.50;8.23;;;25.40;45.60;;;;;;4215395;28;20048;-57
2021/08/14 01:50:06;;;;;;;18.08;8.20;;;25.30;45.60;;;;;;4217016;28;20143;-58
2021/08/14 01:52:16;;;;;;;16.05;8.10;;;25.30;45.60;;;;;;4214439;28;20044;-58
2021/08/14 01:54:20;;;;;;;12.32;7.45;;;25.30;45.60;;;;;;4214765;28;20040;-58
2021/08/14 01:56:24;;;;;;;13.57;7.43;;;25.30;45.60;;;;;;4211591;28;20049;-58
2021/08/14 01:58:27;;;;;;;24.02;8.15;;;25.30;45.60;;;;;;4216537;28;20304;-58
2021/08/14 02:00:29;;;;;;;13.32;7.43;;;25.30;45.70;;;;;;4213527;28;20082;-58
2021/08/14 02:02:31;;;;;;;14.07;7.13;;;25.30;45.70;;;;;;4214694;28;20078;-58
2021/08/14 02:04:34;;;;;;;16.48;8.00;;;25.30;45.70;;;;;;4227407;28;20040;-58
2021/08/14 02:06:36;;;;;;;17.27;7.38;;;25.30;45.70;;;;;;4215347;28;20044;-58
2021/08/14 02:08:38;;;;;;;15.10;8.50;;;25.30;45.80;;;;;;4220185;28;20058;-58
2021/08/14 02:10:40;;;;;;;18.70;7.97;;;25.30;45.70;;;;;;4223853;28;20098;-58
2021/08/14 02:12:42;;;;;;;11.32;7.82;;;25.20;45.80;;;;;;4216328;28;20121;-58
2021/08/14 02:14:44;;;;;;;12.90;8.73;;;25.20;45.90;;;;;;4214861;28;20052;-58
2021/08/14 02:16:46;;;;;;;14.27;8.52;;;25.20;45.80;;;;;;4214350;28;20079;-59
2021/08/14 02:18:48;;;;;;;15.18;9.00;;;25.20;45.80;;;;;;4214066;28;20045;-58
2021/08/14 02:20:50;;;;;;;17.30;9.07;;;25.20;45.80;;;;;;4216218;28;20108;-58
2021/08/14 02:22:52;;;;;;;17.17;8.40;;;25.20;45.90;;;;;;4215342;28;20056;-58
2021/08/14 02:24:55;;;;;;;17.02;8.38;;;25.20;45.90;;;;;;4223066;28;20104;-58
2021/08/14 02:26:57;;;;;;;13.95;8.20;;;25.20;46.00;;;;;;4214626;28;20048;-58
2021/08/14 02:28:59;;;;;;;12.38;7.30;;;25.20;46.00;;;;;;4214738;28;20048;-58
2021/08/14 02:31:03;;;;;;;20.05;8.77;;;25.20;46.00;;;;;;4212102;28;20052;-58
2021/08/14 02:33:05;;;;;;;14.15;8.48;;;25.10;46.10;;;;;;4214494;28;20102;-59
2021/08/14 02:35:08;;;;;;;16.90;7.65;;;25.20;46.20;;;;;;4231537;28;20130;-60
2021/08/14 02:37:10;;;;;;;13.20;7.20;;;25.10;46.20;;;;;;4211876;28;20082;-60
2021/08/14 02:39:12;;;;;;;15.90;7.97;;;25.10;46.30;;;;;;4214491;28;20037;-59
2021/08/14 02:41:14;;;;;;;13.05;7.38;;;25.10;46.30;;;;;;4215853;28;20481;-59
2021/08/14 02:43:16;;;;;;;14.57;7.72;;;25.10;46.20;;;;;;4214081;28;20049;-58
2021/08/14 02:45:18;;;;;;;14.70;8.35;;;25.10;46.30;;;;;;4214063;28;20044;-59
2021/08/14 02:47:20;;;;;;;12.55;6.90;;;25.10;46.30;;;;;;4217249;28;20079;-59
2021/08/14 02:49:22;;;;;;;14.30;7.30;;;25.10;46.20;;;;;;4212034;28;20049;-59
2021/08/14 02:51:24;;;;;;;13.18;7.15;;;25.10;46.30;;;;;;4212590;28;20045;-58
2021/08/14 02:53:26;;;;;;;15.10;7.43;;;25.10;46.30;;;;;;4212516;28;20056;-58
2021/08/14 02:55:28;;;;;;;17.27;7.57;;;25.10;46.30;;;;;;4212953;28;20053;-58
2021/08/14 02:57:30;;;;;;;14.20;6.78;;;25.10;46.30;;;;;;4201383;28;20098;-58
2021/08/14 02:59:32;;;;;;;15.27;7.72;;;25.00;46.30;;;;;;4210560;28;20056;-59
2021/08/14 03:01:34;;;;;;;12.25;7.40;;;25.00;46.20;;;;;;4213940;28;20041;-58
2021/08/14 03:03:37;;;;;;;15.48;7.78;;;25.00;46.20;;;;;;3837106;28;10000447;-58
2021/08/14 03:05:39;;;;;;;18.08;8.10;;;25.00;46.20;;;;;;4211819;28;20051;-59
2021/08/14 03:07:41;;;;;;;13.82;7.38;;;25.00;46.20;;;;;;4218588;28;20051;-59
2021/08/14 03:09:43;;;;;;;11.40;6.95;;;25.00;46.20;;;;;;4214240;28;20055;-60
2021/08/14 03:11:45;;;;;;;12.98;7.72;;;25.00;46.20;;;;;;4213783;28;20045;-60
2021/08/14 03:13:47;;;;;;;15.10;8.57;;;25.00;46.20;;;;;;4211685;28;20469;-60
2021/08/14 03:15:49;;;;;;;14.98;8.50;;;25.00;46.20;;;;;;4211569;28;20040;-60
2021/08/14 03:17:54;;;;;;;14.00;7.88;;;25.00;46.20;;;;;;4215177;28;20044;-60
2021/08/14 03:19:57;;;;;;;17.67;8.27;;;25.00;46.20;;;;;;4214020;28;20045;-60
2021/08/14 03:21:59;;;;;;;18.08;7.68;;;25.00;46.20;;;;;;4216965;28;20044;-59
2021/08/14 03:24:01;;;;;;;14.13;7.80;;;25.00;46.20;;;;;;4212644;28;20041;-60
2021/08/14 03:26:03;;;;;;;12.77;7.75;;;25.00;46.20;;;;;;4198769;28;20052;-60
2021/08/14 03:28:05;;;;;;;14.50;7.32;;;25.00;46.10;;;;;;4201821;28;20080;-61
2021/08/14 03:30:08;;;;;;;13.23;7.35;;;25.00;46.10;;;;;;4213200;28;20055;-60
2021/08/14 03:32:10;;;;;;;15.60;7.53;;;25.00;46.10;;;;;;4206705;28;20075;-61
2021/08/14 03:34:12;;;;;;;17.48;7.70;;;24.90;46.20;;;;;;4212822;28;20086;-61
2021/08/14 03:36:14;;;;;;;20.00;8.35;;;24.90;46.20;;;;;;4205944;28;20049;-61
2021/08/14 03:38:16;;;;;;;24.02;7.00;;;24.90;46.30;;;;;;4200747;28;20053;-61
2021/08/14 03:40:18;;;;;;;16.77;7.32;;;24.90;46.40;;;;;;4215022;28;20405;-61
2021/08/14 03:42:20;;;;;;;14.68;6.38;;;24.90;46.30;;;;;;4202343;28;20059;-61
2021/08/14 03:44:22;;;;;;;15.02;7.25;;;24.90;46.30;;;;;;4200121;28;20067;-62
2021/08/14 03:46:24;;;;;;;15.30;6.50;;;24.90;46.30;;;;;;4200813;28;20104;-62
2021/08/14 03:48:26;;;;;;;11.88;6.70;;;24.90;46.20;;;;;;4195250;28;20048;-61
2021/08/14 03:50:28;;;;;;;12.55;6.20;;;24.90;46.20;;;;;;4201289;28;20063;-62
2021/08/14 03:52:30;;;;;;;10.45;6.57;;;24.90;46.20;;;;;;4208324;28;20048;-61
2021/08/14 03:54:33;;;;;;;14.52;6.80;;;24.90;46.20;;;;;;4215126;28;20060;-60
2021/08/14 03:56:35;;;;;;;18.08;12.10;;;24.90;46.10;;;;;;4207932;28;20044;-61
2021/08/14 03:58:37;;;;;;;27.13;22.67;;;24.90;46.10;;;;;;4207150;28;20037;-58
2021/08/14 04:00:41;;;;;;;22.40;19.40;;;24.90;46.20;;;;;;4199453;28;20056;-57
2021/08/14 04:02:45;;;;;;;23.88;17.52;;;24.90;46.30;;;;;;4213813;28;20269;-59
2021/08/14 04:04:47;;;;;;;16.30;13.77;;;24.90;46.30;;;;;;4206053;28;20053;-58
2021/08/14 04:06:49;;;;;;;17.92;11.68;;;24.90;46.30;;;;;;4212701;28;20078;-58
2021/08/14 04:08:51;;;;;;;17.50;9.23;;;24.90;46.40;;;;;;4226331;28;20062;-58
2021/08/14 04:10:53;;;;;;;13.48;8.30;;;24.90;46.40;;;;;;4213105;28;20060;-58
2021/08/14 04:12:55;;;;;;;16.85;7.95;;;24.90;46.50;;;;;;4207422;28;20045;-58
2021/08/14 04:14:59;;;;;;;17.75;8.10;;;24.90;46.50;;;;;;4201566;28;20087;-58
2021/08/14 04:17:05;;;;;;;14.43;7.90;;;24.90;46.40;;;;;;4181814;28;20049;-58
2021/08/14 04:19:08;;;;;;;10.38;6.93;;;24.90;46.40;;;;;;4211658;28;20048;-59
2021/08/14 04:21:10;;;;;;;11.18;6.30;;;24.90;46.40;;;;;;4211100;28;20048;-59
2021/08/14 04:23:12;;;;;;;16.35;7.43;;;24.90;46.50;;;;;;4213277;28;20810;-58
2021/08/14 04:25:14;;;;;;;10.60;6.50;;;24.80;46.40;;;;;;4213443;28;20051;-58
2021/08/14 04:27:16;;;;;;;13.32;6.18;;;24.80;46.50;;;;;;4211440;28;20053;-58
2021/08/14 04:29:18;;;;;;;11.23;6.97;;;24.80;46.40;;;;;;4214032;28;20048;-59
2021/08/14 04:31:20;;;;;;;11.63;6.85;;;24.90;46.50;;;;;;4197882;28;20049;-58
2021/08/14 04:33:22;;;;;;;10.95;6.75;;;24.90;46.50;;;;;;4209757;28;20049;-59
2021/08/14 04:35:24;;;;;;;14.20;6.38;;;24.80;46.50;;;;;;4212871;28;20070;-58
2021/08/14 04:37:26;;;;;;;13.88;6.53;;;24.80;46.50;;;;;;4211972;28;20053;-59
2021/08/14 04:39:28;;;;;;;15.75;6.53;;;24.80;46.50;;;;;;4215009;28;20044;-58
2021/08/14 04:41:30;;;;;;;11.63;6.35;;;24.80;46.60;;;;;;4214218;28;20057;-58
2021/08/14 04:43:32;;;;;;;9.55;5.97;;;24.80;46.50;;;;;;4217472;28;20107;-60
2021/08/14 04:45:34;;;;;;;9.63;6.55;;;24.90;46.50;;;;;;4218207;28;20044;-60
2021/08/14 04:47:36;;;;;;;13.73;6.57;;;24.90;46.40;;;;;;4215447;28;20063;-61
2021/08/14 04:49:38;;;;;;;14.45;6.95;;;24.90;46.40;;;;;;4211560;28;20044;-60
2021/08/14 04:51:40;;;;;;;14.15;7.70;;;24.90;46.50;;;;;;4216526;28;20109;-59
2021/08/14 04:53:42;;;;;;;11.60;6.35;;;24.90;46.40;;;;;;4202403;28;20060;-60
2021/08/14 04:55:44;;;;;;;13.85;6.32;;;24.90;46.40;;;;;;4209729;28;20048;-60
2021/08/14 04:57:46;;;;;;;10.23;6.47;;;24.90;46.40;;;;;;4209889;28;20047;-60
2021/08/14 04:59:48;;;;;;;11.57;5.70;;;24.90;46.50;;;;;;4216758;28;20049;-60
2021/08/14 05:01:50;;;;;;;10.93;5.53;;;24.90;46.50;;;;;;4217535;28;20055;-60
2021/08/14 05:03:52;;;;;;;12.27;5.65;;;24.90;46.60;;;;;;4210132;28;20044;-60
2021/08/14 05:05:54;;;;;;;9.45;6.05;;;24.90;46.70;;;;;;4216627;28;20059;-60
2021/08/14 05:07:56;;;;;;;10.68;5.97;;;24.90;46.70;;;;;;4202857;28;20061;-60
2021/08/14 05:09:58;;;;;;;13.82;7.28;;;24.90;46.70;;;;;;4215467;28;20087;-60
2021/08/14 05:12:00;;;;;;;15.07;5.88;;;24.90;46.80;;;;;;4214203;28;20040;-60
2021/08/14 05:14:02;;;;;;;12.27;6.20;;;24.90;46.80;;;;;;4201052;28;20089;-60
2021/08/14 05:16:04;;;;;;;11.57;5.95;;;24.90;46.90;;;;;;4203132;28;20059;-60
2021/08/14 05:18:06;;;;;;;12.13;5.25;;;24.90;47.00;;;;;;4211673;28;20036;-59
2021/08/14 05:20:08;;;;;;;7.55;5.32;;;24.90;47.00;;;;;;4229145;28;20047;-59
2021/08/14 05:22:10;;;;;;;9.35;5.47;;;24.90;47.10;;;;;;4232832;28;20040;-59
2021/08/14 05:24:12;;;;;;;15.50;5.68;;;24.90;47.20;;;;;;4221089;28;20069;-60
2021/08/14 05:26:14;;;;;;;11.05;5.40;;;24.90;47.20;;;;;;4221318;28;20037;-60
2021/08/14 05:28:16;;;;;;;12.73;6.22;;;24.90;47.30;;;;;;4218312;28;20045;-57
2021/08/14 05:30:18;;;;;;;14.00;5.93;;;24.90;47.60;;;;;;4202580;28;20072;-58
2021/08/14 05:32:20;;;;;;;11.63;6.28;;;25.00;47.70;;;;;;4209460;28;20044;-60
2021/08/14 05:34:22;;;;;;;15.40;7.05;;;24.90;47.80;;;;;;4216801;28;20049;-60
2021/08/14 05:36:24;;;;;;;38.67;10.43;;;25.00;48.00;;;;;;4217209;28;20045;-57
2021/08/14 05:38:26;;;;;;;21.65;7.13;;;25.00;49.10;;;;;;4218387;28;20056;-59
2021/08/14 05:40:28;;;;;;;14.73;7.55;;;25.00;48.40;;;;;;4218091;28;20045;-58
2021/08/14 05:42:30;;;;;;;18.92;7.70;;;25.00;48.30;;;;;;4218113;28;20063;-58
2021/08/14 05:44:32;;;;;;;26.08;9.90;;;25.10;48.10;;;;;;4201773;28;20041;-58
2021/08/14 05:46:34;;;;;;;22.98;8.25;;;25.10;49.00;;;;;;4213465;28;20045;-58
2021/08/14 05:48:37;;;;;;;23.55;7.82;;;25.10;48.70;;;;;;4217024;28;20100;-58
2021/08/14 05:50:39;;;;;;;21.23;7.47;;;25.10;49.00;;;;;;4217970;28;20048;-58
2021/08/14 05:52:41;;;;;;;33.88;9.15;;;25.10;48.90;;;;;;4216794;28;20094;-61
2021/08/14 05:54:43;;;;;;;26.00;7.95;;;25.10;48.80;;;;;;4213752;28;20045;-60
2021/08/14 05:56:46;;;;;;;16.23;7.05;;;25.20;48.50;;;;;;4215211;28;20044;-60
2021/08/14 05:58:48;;;;;;;14.60;6.13;;;25.20;48.40;;;;;;4214831;28;20075;-60
2021/08/14 06:00:50;;;;;;;16.55;6.00;;;25.20;48.40;;;;;;4214281;28;20048;-60
2021/08/14 06:02:52;;;;;;;13.40;6.00;;;25.20;48.80;;;;;;4214324;28;20040;-60
2021/08/14 06:04:54;;;;;;;28.98;6.35;;;25.10;48.90;;;;;;4217623;28;20481;-62
2021/08/14 06:06:56;;;;;;;18.10;6.40;;;25.20;49.70;;;;;;4214287;28;20049;-60
2021/08/14 06:08:58;;;;;;;20.58;5.72;;;25.20;49.50;;;;;;4210781;28;20049;-60
2021/08/14 06:11:01;;;;;;;21.45;6.30;;;25.20;49.20;;;;;;4202277;28;20086;-60
2021/08/14 06:13:03;;;;;;;35.60;7.03;;;25.20;49.30;;;;;;4215988;28;20112;-60
2021/08/14 06:15:06;;;;;;;20.95;6.50;;;25.20;49.60;;;;;;4213814;28;20046;-60
2021/08/14 06:17:08;;;;;;;19.23;7.22;;;25.20;49.60;;;;;;4214029;28;20041;-60
2021/08/14 06:19:10;;;;;;;29.70;6.22;;;25.20;49.80;;;;;;4214995;28;20075;-60
2021/08/14 06:21:12;;;;;;;24.45;6.03;;;25.30;49.30;;;;;;4214221;28;20040;-60
2021/08/14 06:23:14;;;;;;;13.80;5.07;;;25.30;49.60;;;;;;4213212;28;20045;-60
2021/08/14 06:25:17;;;;;;;21.83;7.10;;;25.20;49.70;;;;;;4214414;28;20051;-60
2021/08/14 06:27:19;;;;;;;13.60;5.57;;;25.20;49.60;;;;;;4214885;28;20082;-60
2021/08/14 06:29:21;;;;;;;11.70;5.50;;;25.20;49.30;;;;;;4213677;28;20044;-60
2021/08/14 06:31:23;;;;;;;12.95;5.90;;;25.20;49.10;;;;;;4213493;28;20044;-59
2021/08/14 06:33:25;;;;;;;10.45;5.97;;;25.20;49.00;;;;;;4215286;28;20055;-59
2021/08/14 06:35:27;;;;;;;8.25;5.45;;;25.20;48.90;;;;;;4213203;28;20044;-59
2021/08/14 06:37:29;;;;;;;16.75;5.38;;;25.20;48.70;;;;;;4213686;28;20048;-59
2021/08/14 06:39:31;;;;;;;10.00;5.45;;;25.20;48.70;;;;;;4213848;28;20068;-60
2021/08/14 06:41:33;;;;;;;13.85;5.75;;;25.20;48.50;;;;;;4215445;28;20049;-60
2021/08/14 06:43:35;;;;;;;12.73;5.13;;;25.10;48.50;;;;;;4213386;28;20040;-60
2021/08/14 06:45:37;;;;;;;12.65;4.97;;;25.10;48.20;;;;;;4213897;28;20041;-60
2021/08/14 06:47:39;;;;;;;9.30;4.80;;;25.20;48.10;;;;;;4215023;28;20083;-60
2021/08/14 06:49:41;;;;;;;9.68;4.88;;;25.20;47.60;;;;;;4209761;28;20062;-59
2021/08/14 06:51:43;;;;;;;11.43;5.07;;;25.20;47.90;;;;;;4213508;28;20062;-60
2021/08/14 06:53:48;;;;;;;10.45;5.07;;;25.20;47.90;;;;;;4213325;28;20066;-60
2021/08/14 06:55:50;;;;;;;9.85;5.07;;;25.20;48.00;;;;;;4198732;28;20084;-59
2021/08/14 06:57:52;;;;;;;8.52;4.57;;;25.30;47.90;;;;;;4212740;28;20048;-60
2021/08/14 06:59:54;;;;;;;7.88;4.30;;;25.20;47.80;;;;;;4213010;28;20049;-59
2021/08/14 07:01:56;;;;;;;12.00;4.65;;;25.30;47.80;;;;;;4214938;28;20128;-60
2021/08/14 07:03:58;;;;;;;11.02;4.63;;;25.30;47.90;;;;;;4212610;28;20041;-59
2021/08/14 07:06:00;;;;;;;10.80;5.32;;;25.20;47.60;;;;;;4212990;28;20455;-60
2021/08/14 07:08:03;;;;;;;13.70;4.75;;;25.30;47.80;;;;;;4214843;28;20062;-60
2021/08/14 07:10:06;;;;;;;11.80;4.53;;;25.30;47.80;;;;;;4215534;28;20048;-60
2021/08/14 07:12:08;;;;;;;14.70;5.10;;;25.30;47.40;;;;;;4212529;28;20056;-60
2021/08/14 07:14:11;;;;;;;10.35;5.03;;;25.30;47.60;;;;;;4211237;28;20050;-60
2021/08/14 07:16:13;;;;;;;15.18;4.72;;;25.30;47.60;;;;;;4199272;28;20055;-60
2021/08/14 07:18:15;;;;;;;48.58;37.30;;;25.30;47.60;;;;;;4214453;28;20051;-59
2021/08/14 07:20:17;;;;;;;49.97;31.80;;;25.30;47.90;;;;;;4207546;28;20037;-62
2021/08/14 07:22:19;;;;;;;35.17;24.80;;;25.40;47.90;;;;;;4203950;28;20063;-60
2021/08/14 07:24:21;;;;;;;26.92;19.27;;;25.40;47.80;;;;;;4215271;28;20071;-60
2021/08/14 07:26:24;;;;;;;22.95;14.73;;;25.40;47.70;;;;;;4212725;28;20505;-57
2021/08/14 07:28:26;;;;;;;21.50;14.82;;;25.40;47.60;;;;;;4212130;28;20052;-57
2021/08/14 07:30:28;;;;;;;17.50;13.27;;;25.40;47.60;;;;;;4213615;28;20055;-57
2021/08/14 07:32:30;;;;;;;18.15;12.20;;;25.40;47.70;;;;;;4215142;28;20053;-57
2021/08/14 07:34:32;;;;;;;18.60;12.85;;;25.40;47.60;;;;;;4213541;28;20044;-57
2021/08/14 07:36:34;;;;;;;20.42;13.35;;;25.50;47.70;;;;;;4211443;28;20112;-57
2021/08/14 07:38:36;;;;;;;21.40;11.30;;;25.50;47.80;;;;;;4199531;28;20075;-59
2021/08/14 07:40:38;;;;;;;16.15;11.02;;;25.50;47.60;;;;;;4213179;28;20040;-57
2021/08/14 07:42:40;;;;;;;14.60;10.43;;;25.50;47.60;;;;;;4215956;28;20055;-57
2021/08/14 07:44:42;;;;;;;14.98;9.10;;;25.50;47.60;;;;;;4216282;28;20048;-58
2021/08/14 07:46:51;;;;;;;11.98;8.27;;;25.50;47.60;;;;;;4199714;28;20057;-55
2021/08/14 07:48:53;;;;;;;14.50;8.45;;;25.60;47.70;;;;;;4211065;28;20044;-58
2021/08/14 07:50:56;;;;;;;12.00;9.05;;;25.50;47.60;;;;;;4216220;28;20055;-58
2021/08/14 07:52:59;;;;;;;14.60;10.02;;;25.50;47.40;;;;;;4215965;28;20048;-58
2021/08/14 07:55:01;;;;;;;15.23;9.00;;;25.60;47.60;;;;;;4215828;28;20049;-58
2021/08/14 07:57:03;;;;;;;14.02;8.10;;;25.60;47.50;;;;;;4205979;28;20366;-58
2021/08/14 07:59:05;;;;;;;13.02;7.68;;;25.60;46.50;;;;;;4202265;28;20047;-57
2021/08/14 08:01:08;;;;;;;10.15;7.00;;;25.60;46.30;;;;;;4199530;28;20045;-58
2021/08/14 08:03:11;;;;;;;11.20;6.18;;;25.60;46.70;;;;;;4199589;28;20103;-56
2021/08/14 08:05:13;;;;;;;10.23;6.93;;;25.60;45.80;;;;;;4199046;28;20100;-57
2021/08/14 08:07:15;;;;;;;9.00;7.07;;;25.60;46.40;;;;;;4199419;28;20045;-58
2021/08/14 08:09:17;;;;;;;13.98;6.30;;;25.60;45.20;;;;;;4199389;28;20041;-58
2021/08/14 08:11:19;;;;;;;9.18;5.90;;;25.60;45.50;;;;;;4199316;28;20055;-58
2021/08/14 08:13:21;;;;;;;7.57;5.13;;;25.60;45.60;;;;;;4199311;28;20079;-58
2021/08/14 08:15:24;;;;;;;7.00;4.93;;;25.60;45.00;;;;;;4198891;28;20049;-57
2021/08/14 08:17:26;;;;;;;6.70;4.75;;;25.60;43.90;;;;;;4196352;28;20045;-58
2021/08/14 08:19:28;;;;;;;6.07;4.78;;;25.60;43.30;;;;;;4193919;28;20045;-58
2021/08/14 08:21:30;;;;;;;9.75;5.03;;;25.60;44.30;;;;;;4198878;28;20051;-58
2021/08/14 08:23:32;;;;;;;7.55;5.05;;;25.60;44.80;;;;;;4215839;28;20051;-58
2021/08/14 08:25:34;;;;;;;9.75;5.30;;;25.70;44.60;;;;;;4198269;28;20045;-58
2021/08/14 08:27:38;;;;;;;5.32;4.43;;;25.70;44.60;;;;;;4199250;28;20041;-58
2021/08/14 08:29:40;;;;;;;6.43;5.10;;;25.70;44.60;;;;;;4212156;28;20049;-62
2021/08/14 08:31:42;;;;;;;18.98;16.95;;;25.60;43.50;;;;;;4194588;28;20075;-62
2021/08/14 08:33:44;;;;;;;19.85;13.05;;;25.70;43.40;;;;;;4192300;28;20061;-62
2021/08/14 08:35:46;;;;;;;18.88;13.07;;;25.70;44.00;;;;;;4193082;28;20041;-62
2021/08/14 08:37:49;;;;;;;23.23;12.90;;;25.70;44.20;;;;;;4181113;28;20124;-58
2021/08/14 08:39:51;;;;;;;23.33;11.10;;;25.60;44.50;;;;;;4182971;28;20056;-58
2021/08/14 08:41:54;;;;;;;24.73;10.88;;;25.70;44.90;;;;;;4186650;28;20038;-59
2021/08/14 08:43:57;;;;;;;25.77;9.50;;;25.70;45.10;;;;;;4180973;28;20056;-58
2021/08/14 08:46:00;;;;;;;28.38;9.65;;;25.70;45.50;;;;;;4181786;28;20045;-64
2021/08/14 08:48:06;;;;;;;30.60;9.45;;;25.70;45.50;;;;;;4184132;28;20045;-63
2021/08/14 08:50:09;;;;;;;37.60;9.40;;;25.70;45.70;;;;;;4190809;28;20045;-63
2021/08/14 08:52:11;;;;;;;28.33;8.02;;;25.70;45.70;;;;;;4180824;28;20064;-63
2021/08/14 08:54:15;;;;;;;24.15;7.60;;;25.70;46.20;;;;;;4181812;28;20046;-63
2021/08/14 08:56:17;;;;;;;27.98;7.68;;;25.80;46.30;;;;;;4182096;28;20104;-64
2021/08/14 08:58:19;;;;;;;22.45;6.95;;;25.80;46.60;;;;;;4182543;28;20046;-64
2021/08/14 09:00:21;;;;;;;19.20;5.43;;;25.80;46.80;;;;;;4197892;28;20075;-59
2021/08/14 09:02:32;;;;;;;15.95;5.45;;;25.80;45.30;;;;;;4195574;28;20053;-59
2021/08/14 09:04:34;;;;;;;10.18;5.20;;;25.80;45.90;;;;;;4197796;28;20041;-59
2021/08/14 09:06:41;;;;;;;15.15;5.95;;;25.80;45.50;;;;;;4197501;28;20465;-60
2021/08/14 09:09:06;;;;;;;10.88;4.75;;;25.90;45.40;;;;;;4198798;28;20053;-58
2021/08/14 09:11:14;;;;;;;7.13;4.07;;;25.90;44.60;;;;;;4195270;28;20109;-57
2021/08/14 09:13:19;;;;;;;9.20;4.53;;;25.90;44.50;;;;;;4198949;28;20049;-58
2021/08/14 09:15:29;;;;;;;12.52;4.97;;;25.90;45.10;;;;;;4195728;28;20045;-63
2021/08/14 09:17:31;;;;;;;15.35;5.38;;;25.90;45.60;;;;;;4197837;28;20083;-57
2021/08/14 09:19:34;;;;;;;12.13;4.57;;;25.90;45.70;;;;;;4197818;28;20053;-56
2021/08/14 09:21:37;;;;;;;15.55;5.10;;;25.90;45.80;;;;;;4195943;28;20056;-57
2021/08/14 09:23:41;;;;;;;10.63;5.32;;;25.90;45.20;;;;;;4198483;28;20119;-57
2021/08/14 09:25:54;;;;;;;10.48;5.38;;;25.90;45.40;;;;;;4198166;28;20041;-57
2021/08/14 09:27:59;;;;;;;17.13;5.10;;;25.90;45.70;;;;;;4199731;28;20050;-55
2021/08/14 09:30:02;;;;;;;19.05;5.70;;;25.90;45.80;;;;;;4201458;28;20049;-54
2021/08/14 09:32:10;;;;;;;16.92;4.85;;;25.90;46.20;;;;;;4200515;28;20044;-56
2021/08/14 09:34:23;;;;;;;21.17;4.90;;;25.90;46.10;;;;;;3837895;28;9999922;-54
2021/08/14 09:36:25;;;;;;;14.65;5.00;;;25.80;46.30;;;;;;4199434;28;20088;-51
2021/08/14 09:38:49;;;;;;;17.40;5.55;;;25.80;46.10;;;;;;4184172;28;20050;-52
2021/08/14 09:40:51;;;;;;;14.43;5.80;;;25.70;45.90;;;;;;4201397;28;20052;-52
2021/08/14 09:42:53;;;;;;;12.40;4.40;;;25.70;46.60;;;;;;4185093;28;20102;-51
2021/08/14 09:45:16;;;;;;;14.70;4.65;;;25.70;46.50;;;;;;4184992;28;20054;-51
2021/08/14 09:47:34;;;;;;;16.40;4.97;;;25.70;46.30;;;;;;4185161;28;20060;-53
2021/08/14 09:49:50;;;;;;;8.85;4.50;;;25.70;45.90;;;;;;4184480;28;20049;-52
2021/08/14 09:51:52;;;;;;;63.00;6.22;;;25.70;46.50;;;;;;4184750;28;20109;-52
2021/08/14 09:53:55;;;;;;;13.57;5.32;;;25.80;47.00;;;;;;4199521;28;20113;-49
2021/08/14 09:56:09;;;;;;;16.00;4.72;;;25.80;45.60;;;;;;4199368;28;20104;-47
2021/08/14 09:58:15;;;;;;;14.95;4.82;;;25.80;45.10;;;;;;4194721;28;20053;-52
2021/08/14 10:00:17;;;;;;;26.63;12.52;;;25.80;45.60;;;;;;4199543;28;20067;-53
2021/08/14 10:02:29;;;;;;;30.98;16.30;;;25.80;46.50;;;;;;4215910;28;20079;-50
2021/08/14 10:04:32;;;;;;;23.27;15.15;;;25.80;45.60;;;;;;4209922;28;20057;-51
2021/08/14 10:06:34;;;;;;;10.18;4.30;;;25.80;44.90;;;;;;4203042;28;20100;-50
2021/08/14 10:08:38;;;;;;;21.25;12.48;;;25.80;45.40;;;;;;4214341;28;20084;-50
2021/08/14 10:10:42;;;;;;;13.68;9.70;;;25.80;44.30;;;;;;4203492;28;20049;-50
2021/08/14 10:12:50;;;;;;;18.13;12.45;;;25.80;44.20;;;;;;4215871;28;20053;-49
2021/08/14 10:14:53;;;;;;;26.40;15.43;;;25.80;44.90;;;;;;4212213;28;20047;-51
2021/08/14 10:16:56;;;;;;;17.95;11.77;;;25.80;45.20;;;;;;4213000;28;20512;-51
2021/08/14 10:19:00;;;;;;;20.00;11.75;;;25.90;45.70;;;;;;4201628;28;20037;-56
2021/08/14 10:21:03;;;;;;;19.98;13.70;;;25.90;45.00;;;;;;4201564;28;20053;-54
2021/08/14 10:23:10;;;;;;;28.73;10.90;;;25.90;44.50;;;;;;4207599;28;20036;-54
2021/08/14 10:25:19;;;;;;;22.65;12.00;;;25.90;44.60;;;;;;4203415;28;20112;-56
2021/08/14 10:27:22;;;;;;;22.88;13.60;;;25.80;43.80;;;;;;4212586;28;20048;-55
2021/08/14 10:29:50;;;;;;;18.60;9.98;;;25.80;43.30;;;;;;4211741;28;20036;-53
2021/08/14 10:31:52;;;;;;;15.00;8.40;;;25.90;44.10;;;;;;4200808;28;20057;-55